createdAt,value
2023-03-22T00:01:55.489Z,0.38
2023-03-22T00:04:57.038Z,0.28
2023-03-22T00:07:58.908Z,0.30
2023-03-22T00:11:00.614Z,0.22
2023-03-22T00:14:02.194Z,0.20
2023-03-22T00:17:03.812Z,0.30
2023-03-22T00:20:08.917Z,0.20
2023-03-22T00:23:10.658Z,0.20
2023-03-22T00:26:13.657Z,0.20
2023-03-22T00:29:16.225Z,0.30
2023-03-22T00:32:17.857Z,0.30
2023-03-22T00:35:19.545Z,0.30
2023-03-22T00:38:27.282Z,0.30
2023-03-22T00:41:34.241Z,0.30
2023-03-22T00:44:36.084Z,0.30
2023-03-22T00:47:37.995Z,0.28
2023-03-22T00:50:41.155Z,0.20
2023-03-22T00:53:43.841Z,0.30
2023-03-22T00:56:45.534Z,0.30
2023-03-22T00:59:47.471Z,0.30
2023-03-22T01:02:49.192Z,0.30
2023-03-22T01:05:55.597Z,0.30
2023-03-22T01:08:57.337Z,0.30
2023-03-22T01:11:59.848Z,0.30
2023-03-22T01:15:01.598Z,0.30
2023-03-22T01:18:03.668Z,0.20
2023-03-22T01:21:05.938Z,0.32
2023-03-22T01:24:07.819Z,0.30
2023-03-22T01:27:09.410Z,0.20
2023-03-22T01:30:11.821Z,0.35
2023-03-22T01:33:13.378Z,0.22
2023-03-22T01:36:14.921Z,0.30
2023-03-22T01:39:16.664Z,0.25
2023-03-22T01:42:21.015Z,0.43
2023-03-22T01:45:43.488Z,0.40
2023-03-22T01:48:46.442Z,0.20
2023-03-22T01:51:50.616Z,0.40
2023-03-22T01:54:54.002Z,0.40
2023-03-22T01:57:55.805Z,0.65
2023-03-22T02:00:58.405Z,0.50
2023-03-22T02:04:09.495Z,0.50
2023-03-22T02:07:15.875Z,0.60
2023-03-22T02:10:24.476Z,0.40
2023-03-22T02:13:48.633Z,0.30
2023-03-22T02:17:12.068Z,0.40
2023-03-22T02:20:41.865Z,0.25
2023-03-22T02:24:23.552Z,0.40
2023-03-22T02:27:34.418Z,0.30
2023-03-22T02:30:44.833Z,0.30
2023-03-22T02:34:17.335Z,0.40
2023-03-22T02:37:36.804Z,0.30
2023-03-22T02:40:54.209Z,0.40
2023-03-22T02:44:52.608Z,0.30
2023-03-22T02:48:12.709Z,0.30
2023-03-22T02:51:26.198Z,0.40
2023-03-22T02:54:39.794Z,0.25
2023-03-22T02:57:52.202Z,0.30
2023-03-22T03:00:59.563Z,0.30
2023-03-22T03:04:05.765Z,0.20
2023-03-22T03:07:09.932Z,0.30
2023-03-22T03:10:15.122Z,0.30
2023-03-22T03:13:18.753Z,0.40
2023-03-22T03:16:22.836Z,0.30
2023-03-22T03:19:35.826Z,0.30
2023-03-22T03:23:16.565Z,0.20
2023-03-22T03:26:24.003Z,0.20
2023-03-22T03:29:42.906Z,0.28
2023-03-22T03:33:00.875Z,0.20
2023-03-22T03:36:07.509Z,0.20
2023-03-22T03:39:12.587Z,0.20
2023-03-22T03:42:16.565Z,0.20
2023-03-22T03:45:19.755Z,0.30
2023-03-22T03:48:33.270Z,0.28
2023-03-22T03:51:46.878Z,0.20
2023-03-22T03:54:48.403Z,0.30
2023-03-22T03:57:50.007Z,0.30
2023-03-22T04:00:51.798Z,0.30
2023-03-22T04:03:55.494Z,0.25
2023-03-22T04:06:59.102Z,0.20
2023-03-22T04:10:00.781Z,0.20
2023-03-22T04:13:02.473Z,0.35
2023-03-22T04:16:04.131Z,0.30
2023-03-22T04:19:05.863Z,0.20
2023-03-22T04:22:07.526Z,0.22
2023-03-22T04:25:11.987Z,0.30
2023-03-22T04:28:13.807Z,0.20
2023-03-22T04:31:15.446Z,0.20
2023-03-22T04:34:17.066Z,0.22
2023-03-22T04:37:19.987Z,0.15
2023-03-22T04:40:21.670Z,0.20
2023-03-22T04:43:23.431Z,0.20
2023-03-22T04:46:25.292Z,0.20
2023-03-22T04:49:27.204Z,0.17
2023-03-22T04:52:28.801Z,0.10
2023-03-22T04:55:30.321Z,0.22
2023-03-22T04:58:31.907Z,0.20
2023-03-22T05:01:35.307Z,0.20
2023-03-22T05:04:36.942Z,0.20
2023-03-22T05:07:39.295Z,0.20
2023-03-22T05:10:41.469Z,0.20
2023-03-22T05:13:43.493Z,0.30
2023-03-22T05:16:45.288Z,0.20
2023-03-22T05:19:47.774Z,0.25
2023-03-22T05:22:50.564Z,0.20
2023-03-22T05:25:53.460Z,0.30
2023-03-22T05:28:55.823Z,0.20
2023-03-22T05:31:57.330Z,0.30
2023-03-22T05:35:03.619Z,0.40
2023-03-22T05:38:06.328Z,0.25
2023-03-22T05:41:08.169Z,0.20
2023-03-22T05:44:09.733Z,0.20
2023-03-22T05:47:11.455Z,0.20
2023-03-22T05:50:19.607Z,0.40
2023-03-22T05:53:21.217Z,0.30
2023-03-22T05:56:24.399Z,0.30
2023-03-22T05:59:26.275Z,0.20
2023-03-22T06:02:28.457Z,0.20
2023-03-22T06:05:31.857Z,0.20
2023-03-22T06:08:33.986Z,0.20
2023-03-22T06:11:35.564Z,0.30
2023-03-22T06:14:37.597Z,0.30
2023-03-22T06:17:39.359Z,0.20
2023-03-22T06:20:41.751Z,0.30
2023-03-22T06:23:44.069Z,0.30
2023-03-22T06:26:45.664Z,0.30
2023-03-22T06:29:50.862Z,0.40
2023-03-22T06:32:52.566Z,0.30
2023-03-22T06:35:54.150Z,0.30
2023-03-22T06:38:57.149Z,0.40
2023-03-22T06:41:58.724Z,0.28
2023-03-22T06:45:01.114Z,0.40
2023-03-22T06:48:02.980Z,0.40
2023-03-22T06:51:04.952Z,0.20
2023-03-22T06:54:06.500Z,0.20
2023-03-22T06:57:08.128Z,0.63
2023-03-22T07:00:10.775Z,0.30
2023-03-22T07:03:12.397Z,0.30
2023-03-22T07:06:14.161Z,0.40
2023-03-22T07:09:15.857Z,0.30
2023-03-22T07:12:18.711Z,0.30
2023-03-22T07:15:24.495Z,0.30
2023-03-22T07:18:26.875Z,0.30
2023-03-22T07:21:28.731Z,0.20
2023-03-22T07:24:30.384Z,0.70
2023-03-22T07:27:31.923Z,0.60
2023-03-22T07:30:37.508Z,0.50
2023-03-22T07:33:39.769Z,0.40
2023-03-22T07:36:41.369Z,0.30
2023-03-22T07:39:43.007Z,0.38
2023-03-22T07:42:44.659Z,0.50
2023-03-22T07:45:46.200Z,0.40
2023-03-22T07:48:47.782Z,0.45
2023-03-22T07:51:49.316Z,0.50
2023-03-22T07:54:50.866Z,0.32
2023-03-22T07:57:53.743Z,0.30
2023-03-22T08:00:55.462Z,0.20
2023-03-22T08:03:57.046Z,0.30
2023-03-22T08:06:58.738Z,0.30
2023-03-22T08:10:00.511Z,0.45
2023-03-22T08:13:02.050Z,0.30
2023-03-22T08:16:03.788Z,0.30
2023-03-22T08:19:05.616Z,0.55
2023-03-22T08:22:08.121Z,0.40
2023-03-22T08:25:10.650Z,0.32
2023-03-22T08:28:13.532Z,0.20
2023-03-22T08:31:17.174Z,0.20
2023-03-22T08:34:18.901Z,0.30
2023-03-22T08:37:20.475Z,0.30
2023-03-22T08:40:26.019Z,0.30
2023-03-22T08:43:27.668Z,0.22
2023-03-22T08:46:29.251Z,0.20
2023-03-22T08:49:31.558Z,0.40
2023-03-22T08:52:33.315Z,0.30
2023-03-22T08:55:37.691Z,0.30
2023-03-22T08:58:39.515Z,0.30
2023-03-22T09:01:41.164Z,0.30
2023-03-22T09:04:44.200Z,0.32
2023-03-22T09:07:45.798Z,0.43
2023-03-22T09:10:51.450Z,0.50
2023-03-22T09:13:53.216Z,0.40
2023-03-22T09:16:54.739Z,0.30
2023-03-22T09:20:11.181Z,0.60
2023-03-22T09:23:15.535Z,0.25
2023-03-22T09:26:17.092Z,0.30
2023-03-22T09:29:19.573Z,0.30
2023-03-22T09:32:21.178Z,0.25
2023-03-22T09:35:23.261Z,0.40
2023-03-22T09:38:25.482Z,0.50
2023-03-22T09:41:38.616Z,0.70
2023-03-22T09:44:43.224Z,0.68
2023-03-22T09:47:48.997Z,0.70
2023-03-22T09:50:54.883Z,0.52
2023-03-22T09:53:56.449Z,0.40
2023-03-22T09:57:16.312Z,0.40
2023-03-22T10:00:22.031Z,0.30
2023-03-22T10:03:51.865Z,0.30
2023-03-22T10:07:34.089Z,0.20
2023-03-22T10:10:37.285Z,0.30
2023-03-22T10:13:49.010Z,0.30
2023-03-22T10:16:56.437Z,0.52
2023-03-22T10:20:06.276Z,0.30
2023-03-22T10:23:14.437Z,0.30
2023-03-22T10:26:26.551Z,0.20
2023-03-22T10:29:33.981Z,0.20
2023-03-22T10:32:57.188Z,0.20
2023-03-22T10:36:02.108Z,0.20
2023-03-22T10:39:36.372Z,0.30
2023-03-22T10:42:39.461Z,0.30
2023-03-22T10:45:42.721Z,0.30
2023-03-22T10:48:46.577Z,0.20
2023-03-22T10:51:50.537Z,0.30
2023-03-22T10:54:52.618Z,0.25
2023-03-22T10:58:13.884Z,0.20
2023-03-22T11:01:26.007Z,0.20
2023-03-22T11:04:31.360Z,0.30
2023-03-22T11:07:39.725Z,0.30
2023-03-22T11:10:41.382Z,0.20
2023-03-22T11:13:43.250Z,0.22
2023-03-22T11:17:17.173Z,0.20
2023-03-22T11:20:20.629Z,0.10
2023-03-22T11:23:24.203Z,0.20
2023-03-22T11:26:29.807Z,0.20
2023-03-22T11:29:42.262Z,0.20
2023-03-22T11:32:43.877Z,0.20
2023-03-22T11:35:55.312Z,0.22
2023-03-22T11:39:02.354Z,0.30
2023-03-22T11:42:06.573Z,0.20
2023-03-22T11:45:14.497Z,0.25
2023-03-22T11:48:21.263Z,0.20
2023-03-22T11:51:30.926Z,0.20
2023-03-22T11:54:36.357Z,0.20
2023-03-22T11:57:38.086Z,0.38
2023-03-22T12:00:40.816Z,0.28
2023-03-22T12:03:44.151Z,0.20
2023-03-22T12:06:46.178Z,0.20
2023-03-22T12:10:03.292Z,0.10
2023-03-22T12:13:15.849Z,0.20
2023-03-22T12:16:24.867Z,0.20
2023-03-22T12:19:41.987Z,0.10
2023-03-22T12:22:51.310Z,0.13
2023-03-22T12:26:00.443Z,0.15
2023-03-22T12:29:06.088Z,0.10
2023-03-22T12:32:19.528Z,0.15
2023-03-22T12:35:36.976Z,0.10
2023-03-22T12:38:48.778Z,0.20
2023-03-22T12:41:52.983Z,0.10
2023-03-22T12:45:05.477Z,0.10
2023-03-22T12:48:33.671Z,0.10
2023-03-22T12:51:36.655Z,0.20
2023-03-22T12:54:38.610Z,0.20
2023-03-22T12:57:40.399Z,0.20
2023-03-22T13:00:48.547Z,0.20
2023-03-22T13:03:53.728Z,0.20
2023-03-22T13:07:11.734Z,0.30
2023-03-22T13:10:36.537Z,0.10
2023-03-22T13:13:46.756Z,0.20
2023-03-22T13:16:53.098Z,0.10
2023-03-22T13:20:23.704Z,0.20
2023-03-22T13:23:27.150Z,0.30
2023-03-22T13:26:58.416Z,0.13
2023-03-22T13:30:00.250Z,0.30
2023-03-22T13:33:03.515Z,0.20
2023-03-22T13:36:08.546Z,0.20
2023-03-22T13:39:12.590Z,0.20
2023-03-22T13:42:23.188Z,0.20
2023-03-22T13:45:34.001Z,0.10
2023-03-22T13:48:48.074Z,0.10
2023-03-22T13:51:51.362Z,0.10
2023-03-22T13:54:57.222Z,0.20
2023-03-22T13:57:59.901Z,0.20
2023-03-22T14:01:04.651Z,0.10
2023-03-22T14:04:16.404Z,0.10
2023-03-22T14:07:32.954Z,0.13
2023-03-22T14:10:43.360Z,0.20
2023-03-22T14:13:53.598Z,0.20
2023-03-22T14:17:05.010Z,0.10
2023-03-22T14:20:10.933Z,0.20
